EDDF/FRA METAR and TAF weather

Enter ICAO airport designator
Station Type Date Time Source
EDDF METAR 2022/01/29 09:20 UTC NOAA

EDDF 290920Z 22015KT 9999 FEW011 BKN013 05/02 Q1028 TEMPO 22015G25KT BKN015


Station Type Date Time Source
EDDF Decoded METAR 2022/01/29 09:20 UTC NOAA

Frankfurt / M-Flughafen, Germany (EDDF) 50-03N 008-36E 113M
Jan 29, 2022 - 04:20 AM EST / 2022.01.29 0920 UTC
Wind: from the SW (220 degrees) at 17 MPH (15 KT):0
Visibility: greater than 7 mile(s):0
Sky conditions: mostly cloudy
Temperature: 41 F (5 C)
Dew Point: 35 F (2 C)
Relative Humidity: 80%
Pressure (altimeter): 30.36 in. Hg (1028 hPa)
ob: EDDF 290920Z 22015KT 9999 FEW011 BKN013 05/02 Q1028 TEMPO 22015G25KT BKN015
cycle: 9

Station Type Date Time Source
EDDF TAF 2022/01/29 06:28 UTC NOAA

TAF EDDF 290500Z 2906/3012 21013KT 9999 SCT012 BKN020
TEMPO 2906/2914 BKN012
BECMG 2907/2910 22015G25KT PROB30
TEMPO 2908/2914 4000 -DZ BKN008
BECMG 2914/2916 BKN012
TEMPO 2916/2923 2500 RADZ BKN008 PROB30
TEMPO 2918/2923 BKN004
BECMG 2922/2924 25010KT SCT015 BKN035

Example: see airport list